createdAt,value
2019-03-20T00:02:21.887Z,2.90
2019-03-20T00:07:29.261Z,3.00
2019-03-20T00:12:37.631Z,3.27
2019-03-20T00:17:47.426Z,2.80
2019-03-20T00:22:54.766Z,3.50
2019-03-20T00:28:02.437Z,3.57
2019-03-20T00:33:09.762Z,2.73
2019-03-20T00:38:15.910Z,3.33
2019-03-20T00:43:23.623Z,3.67
2019-03-20T00:48:29.994Z,3.33
2019-03-20T00:53:37.623Z,3.33
2019-03-20T00:58:45.370Z,3.60
2019-03-20T01:03:54.671Z,3.10
2019-03-20T01:09:02.447Z,3.10
2019-03-20T01:14:09.525Z,3.03
2019-03-20T01:19:16.592Z,3.13
2019-03-20T01:24:23.591Z,3.83
2019-03-20T01:29:31.188Z,3.73
2019-03-20T01:34:38.750Z,4.10
2019-03-20T01:39:45.922Z,4.17
2019-03-20T01:44:53.518Z,4.90
2019-03-20T01:50:00.976Z,4.57
2019-03-20T01:55:09.394Z,4.27
2019-03-20T02:00:19.734Z,3.30
2019-03-20T02:05:35.343Z,4.57
2019-03-20T02:10:35.493Z,4.77
2019-03-20T02:15:43.109Z,4.67
2019-03-20T02:20:51.170Z,4.27
2019-03-20T02:26:16.490Z,3.90
2019-03-20T02:31:22.755Z,3.60
2019-03-20T02:36:29.232Z,4.27
2019-03-20T02:41:36.027Z,4.10
2019-03-20T02:46:42.479Z,4.43
2019-03-20T02:51:48.726Z,3.67
2019-03-20T02:56:57.403Z,3.63
2019-03-20T03:02:03.681Z,4.97
2019-03-20T03:07:10.951Z,3.67
2019-03-20T03:12:17.639Z,4.43
2019-03-20T03:17:25.060Z,3.87
2019-03-20T03:22:32.992Z,3.97
2019-03-20T03:27:39.486Z,4.77
2019-03-20T03:32:48.331Z,4.67
2019-03-20T03:37:56.611Z,5.83
2019-03-20T03:43:03.866Z,4.83
2019-03-20T03:48:10.504Z,3.67
2019-03-20T03:53:16.873Z,5.20
2019-03-20T03:58:23.350Z,4.37
2019-03-20T04:03:29.623Z,4.47
2019-03-20T04:08:37.466Z,4.53
2019-03-20T04:13:45.412Z,4.60
2019-03-20T04:18:53.223Z,4.17
2019-03-20T04:24:01.278Z,3.97
2019-03-20T04:29:08.836Z,3.97
2019-03-20T04:34:16.814Z,3.43
2019-03-20T04:39:23.756Z,4.53
2019-03-20T04:44:31.288Z,4.33
2019-03-20T04:49:58.922Z,4.47
2019-03-20T04:55:05.886Z,4.00
2019-03-20T05:00:14.117Z,4.10
2019-03-20T05:05:20.624Z,4.63
2019-03-20T05:10:27.304Z,5.43
2019-03-20T05:15:34.613Z,8.20
2019-03-20T05:20:42.044Z,5.10
2019-03-20T05:25:50.937Z,4.63
2019-03-20T05:30:57.208Z,5.33
2019-03-20T05:36:03.171Z,4.70
2019-03-20T05:41:20.315Z,5.10
2019-03-20T05:46:27.593Z,6.67
2019-03-20T05:51:34.907Z,6.97
2019-03-20T05:56:42.555Z,6.03
2019-03-20T06:01:50.274Z,4.80
2019-03-20T06:06:57.481Z,5.43
2019-03-20T06:12:04.805Z,5.93
2019-03-20T06:17:13.177Z,4.87
2019-03-20T06:22:22.639Z,4.73
2019-03-20T06:27:30.048Z,5.57
2019-03-20T06:32:36.503Z,5.17
2019-03-20T06:37:43.632Z,5.40
2019-03-20T06:42:51.081Z,6.17
2019-03-20T06:47:58.987Z,5.60
2019-03-20T06:53:05.060Z,5.53
2019-03-20T06:58:11.292Z,5.87
2019-03-20T07:03:24.714Z,5.40
2019-03-20T07:08:34.728Z,5.70
2019-03-20T07:13:40.863Z,5.50
2019-03-20T07:18:48.828Z,6.07
2019-03-20T07:24:17.054Z,5.33
2019-03-20T07:29:25.992Z,6.63
2019-03-20T07:34:33.802Z,5.47
2019-03-20T07:39:40.819Z,5.20
2019-03-20T07:44:48.475Z,4.93
2019-03-20T07:49:55.848Z,5.77
2019-03-20T07:55:03.351Z,3.93
2019-03-20T08:00:20.091Z,4.50
2019-03-20T08:05:29.494Z,4.00
2019-03-20T08:10:35.431Z,3.77
2019-03-20T08:15:42.450Z,5.87
2019-03-20T08:20:50.269Z,5.97
2019-03-20T08:25:56.995Z,4.60
2019-03-20T08:31:04.083Z,5.10
2019-03-20T08:36:11.305Z,4.73
2019-03-20T08:41:17.624Z,3.83
2019-03-20T08:46:24.492Z,3.70
2019-03-20T08:51:32.518Z,3.70
2019-03-20T08:56:39.401Z,3.17
2019-03-20T09:01:46.775Z,3.40
2019-03-20T09:06:54.154Z,3.27
2019-03-20T09:12:01.246Z,3.83
2019-03-20T09:17:07.774Z,3.67
2019-03-20T09:22:13.806Z,3.33
2019-03-20T09:27:21.703Z,3.73
2019-03-20T09:32:28.975Z,3.70
2019-03-20T09:37:35.659Z,3.47
2019-03-20T09:42:41.907Z,3.57
2019-03-20T09:47:48.500Z,3.43
2019-03-20T09:52:54.499Z,4.70
2019-03-20T09:58:11.108Z,3.73
2019-03-20T10:03:11.625Z,3.57
2019-03-20T10:08:19.171Z,3.37
2019-03-20T10:13:26.834Z,3.90
2019-03-20T10:18:33.239Z,3.70
2019-03-20T10:23:41.353Z,1.47
2019-03-20T10:28:47.650Z,2.77
2019-03-20T10:33:55.300Z,1.80
2019-03-20T10:39:06.720Z,2.23
2019-03-20T10:44:11.714Z,2.50
2019-03-20T10:49:19.720Z,1.90
2019-03-20T10:54:26.960Z,2.20
2019-03-20T10:59:33.585Z,2.37
2019-03-20T11:04:41.580Z,3.17
2019-03-20T11:09:48.044Z,3.20
2019-03-20T11:14:54.090Z,3.53
2019-03-20T11:20:00.454Z,3.08
2019-03-20T11:25:11.139Z,2.50
2019-03-20T11:30:20.116Z,2.50
2019-03-20T11:35:26.457Z,3.40
2019-03-20T11:40:33.155Z,2.45
2019-03-20T11:45:40.053Z,1.70
2019-03-20T11:50:49.597Z,1.65
2019-03-20T11:55:56.597Z,1.62
2019-03-20T12:01:02.630Z,2.17
2019-03-20T12:06:08.905Z,2.08
2019-03-20T12:11:16.009Z,1.77
2019-03-20T12:16:22.045Z,1.62
2019-03-20T12:21:29.812Z,2.05
2019-03-20T12:26:36.164Z,2.00
2019-03-20T12:31:43.798Z,2.10
2019-03-20T12:36:51.378Z,2.00
2019-03-20T12:41:58.564Z,2.17
2019-03-20T12:47:05.898Z,2.20
2019-03-20T12:52:12.147Z,2.65
2019-03-20T12:57:19.338Z,2.20
2019-03-20T13:02:47.372Z,2.75
2019-03-20T13:07:58.044Z,2.70
2019-03-20T13:13:04.046Z,2.70
2019-03-20T13:18:10.713Z,2.52
2019-03-20T13:23:19.875Z,2.70
2019-03-20T13:28:26.976Z,2.70
2019-03-20T13:33:33.614Z,3.80
2019-03-20T13:38:40.368Z,2.75
2019-03-20T13:43:48.577Z,3.00
2019-03-20T13:48:55.402Z,2.62
2019-03-20T13:54:02.672Z,3.12
2019-03-20T13:59:09.724Z,3.05
2019-03-20T14:04:17.435Z,2.70
2019-03-20T14:09:24.949Z,2.40
2019-03-20T14:14:32.238Z,3.25
2019-03-20T14:19:40.722Z,2.85
2019-03-20T14:24:48.793Z,2.22
2019-03-20T14:29:57.170Z,2.95
2019-03-20T14:35:13.371Z,2.37
2019-03-20T14:40:21.405Z,2.67
2019-03-20T14:45:27.763Z,2.60
2019-03-20T14:50:36.544Z,3.05
2019-03-20T14:55:44.663Z,2.87
2019-03-20T15:00:50.604Z,4.15
2019-03-20T15:05:59.287Z,4.58
2019-03-20T15:11:07.707Z,3.10
2019-03-20T15:16:13.997Z,3.15
2019-03-20T15:21:21.906Z,2.55
2019-03-20T15:26:29.196Z,2.75
2019-03-20T15:31:38.243Z,2.95
2019-03-20T15:36:44.202Z,3.12
2019-03-20T15:42:11.290Z,2.98
2019-03-20T15:47:20.658Z,2.80
2019-03-20T15:52:27.179Z,4.45
2019-03-20T15:57:34.928Z,3.37
2019-03-20T16:02:48.424Z,3.72
2019-03-20T16:07:55.444Z,3.10
2019-03-20T16:13:01.877Z,3.22
2019-03-20T16:18:09.715Z,3.17
2019-03-20T16:23:16.362Z,3.72
2019-03-20T16:28:23.086Z,3.22
2019-03-20T16:33:30.809Z,3.25
2019-03-20T16:38:37.228Z,3.05
2019-03-20T16:43:45.039Z,2.52
2019-03-20T16:48:59.374Z,2.87
2019-03-20T16:54:09.568Z,2.70
2019-03-20T16:59:17.434Z,3.25
2019-03-20T17:04:24.187Z,2.98
2019-03-20T17:09:32.522Z,2.73
2019-03-20T17:14:42.962Z,2.40
2019-03-20T17:19:50.646Z,2.65
2019-03-20T17:24:57.295Z,2.80
2019-03-20T17:30:03.771Z,2.83
2019-03-20T17:35:10.257Z,3.40
2019-03-20T17:40:17.435Z,2.73
2019-03-20T17:45:25.100Z,2.93
2019-03-20T17:50:32.120Z,2.97
2019-03-20T17:55:39.095Z,3.00
2019-03-20T18:00:49.133Z,3.20
2019-03-20T18:05:55.444Z,2.77
2019-03-20T18:11:04.182Z,3.10
2019-03-20T18:16:11.465Z,3.93
2019-03-20T18:21:18.776Z,3.07
2019-03-20T18:26:25.298Z,3.00
2019-03-20T18:31:31.536Z,3.20
2019-03-20T18:36:38.917Z,2.50
2019-03-20T18:41:45.894Z,2.37
2019-03-20T18:46:57.647Z,2.70
2019-03-20T18:52:04.723Z,2.80
2019-03-20T18:57:10.782Z,2.53
2019-03-20T19:02:17.163Z,2.97
2019-03-20T19:07:24.894Z,2.67
2019-03-20T19:12:34.032Z,2.63
2019-03-20T19:17:42.563Z,2.97
2019-03-20T19:22:48.915Z,3.13
2019-03-20T19:27:55.399Z,4.03
2019-03-20T19:33:09.991Z,4.43
2019-03-20T19:38:18.104Z,3.30
2019-03-20T19:43:24.684Z,3.30
2019-03-20T19:48:31.448Z,2.57
2019-03-20T19:53:38.568Z,2.90
2019-03-20T19:58:45.703Z,3.43
2019-03-20T20:03:52.147Z,3.27
2019-03-20T20:08:58.753Z,2.93
2019-03-20T20:14:06.603Z,2.60
2019-03-20T20:19:14.070Z,3.00
2019-03-20T20:24:25.895Z,2.80
2019-03-20T20:29:32.656Z,2.83
2019-03-20T20:34:39.582Z,2.40
2019-03-20T20:39:46.855Z,2.30
2019-03-20T20:44:54.620Z,2.43
2019-03-20T20:50:00.948Z,2.70
2019-03-20T20:55:08.747Z,2.43
2019-03-20T21:00:23.271Z,3.80
2019-03-20T21:05:30.845Z,4.87
2019-03-20T21:10:37.888Z,2.93
2019-03-20T21:15:48.086Z,2.93
2019-03-20T21:20:55.337Z,2.97
2019-03-20T21:26:03.732Z,2.90
2019-03-20T21:31:34.509Z,3.00
2019-03-20T21:37:22.803Z,2.77
2019-03-20T21:43:19.211Z,3.30
2019-03-20T21:48:29.631Z,2.90
2019-03-20T21:54:14.954Z,2.93
2019-03-20T22:00:12.512Z,3.87
2019-03-20T22:05:33.243Z,3.30
2019-03-20T22:11:16.443Z,3.73
2019-03-20T22:17:04.653Z,4.13
2019-03-20T22:23:06.752Z,4.73
2019-03-20T22:29:27.189Z,4.27
2019-03-20T22:35:02.934Z,3.73
2019-03-20T22:40:46.985Z,3.83
2019-03-20T22:46:37.989Z,4.37
2019-03-20T22:51:57.882Z,3.50
2019-03-20T22:57:27.411Z,3.47
2019-03-20T23:02:55.924Z,3.37
2019-03-20T23:08:12.139Z,3.43
2019-03-20T23:13:19.452Z,3.03
2019-03-20T23:18:29.304Z,3.53
2019-03-20T23:23:38.069Z,3.30
2019-03-20T23:28:44.621Z,3.43
2019-03-20T23:33:52.565Z,3.47
2019-03-20T23:39:00.248Z,4.03
2019-03-20T23:44:08.184Z,3.80
2019-03-20T23:49:20.408Z,3.10
2019-03-20T23:54:43.449Z,3.33
2019-03-20T23:59:50.296Z,3.77
